createdAt,value
2022-07-28T00:01:28.293Z,41.17
2022-07-28T00:03:55.814Z,40.76
2022-07-28T00:06:23.545Z,35.66
2022-07-28T00:08:51.054Z,41.24
2022-07-28T00:11:18.835Z,41.64
2022-07-28T00:13:46.387Z,36.45
2022-07-28T00:16:14.070Z,41.39
2022-07-28T00:18:41.810Z,43.43
2022-07-28T00:21:09.780Z,43.27
2022-07-28T00:23:39.484Z,42.83
2022-07-28T00:26:09.212Z,39.92
2022-07-28T00:28:36.965Z,43.19
2022-07-28T00:31:12.552Z,43.63
2022-07-28T00:33:41.387Z,42.84
2022-07-28T00:36:27.726Z,42.47
2022-07-28T00:38:55.777Z,43.26
2022-07-28T00:41:23.485Z,41.44
2022-07-28T00:43:52.008Z,41.59
2022-07-28T00:46:21.392Z,42.42
2022-07-28T00:48:52.179Z,40.28
2022-07-28T00:51:21.288Z,43.56
2022-07-28T00:53:51.209Z,39.38
2022-07-28T00:56:30.844Z,40.52
2022-07-28T00:58:58.720Z,42.38
2022-07-28T01:01:26.329Z,43.82
2022-07-28T01:03:55.700Z,40.39
2022-07-28T01:06:48.751Z,42.12
2022-07-28T01:09:48.749Z,44.24
2022-07-28T01:12:41.516Z,40.09
2022-07-28T01:15:18.225Z,41.46
2022-07-28T01:17:56.780Z,39.43
2022-07-28T01:20:31.411Z,43.38
2022-07-28T01:23:11.786Z,44.85
2022-07-28T01:26:01.753Z,39.63
2022-07-28T01:28:44.497Z,39.35
2022-07-28T01:31:19.058Z,45.55
2022-07-28T01:33:50.718Z,46.46
2022-07-28T01:36:23.530Z,46.00
2022-07-28T01:38:51.199Z,45.26
2022-07-28T01:41:20.222Z,40.14
2022-07-28T01:44:08.766Z,45.75
2022-07-28T01:46:37.508Z,43.79
2022-07-28T01:49:09.620Z,42.85
2022-07-28T01:51:38.062Z,45.16
2022-07-28T01:54:07.536Z,46.71
2022-07-28T01:56:37.000Z,45.39
2022-07-28T01:59:09.718Z,41.03
2022-07-28T02:01:38.763Z,46.44
2022-07-28T02:04:06.881Z,45.66
2022-07-28T02:06:35.405Z,43.74
2022-07-28T02:09:05.453Z,46.96
2022-07-28T02:11:41.331Z,45.87
2022-07-28T02:14:22.234Z,47.06
2022-07-28T02:16:56.350Z,46.42
2022-07-28T02:19:24.741Z,48.62
2022-07-28T02:21:54.360Z,49.18
2022-07-28T02:24:26.432Z,49.81
2022-07-28T02:27:04.380Z,48.66
2022-07-28T02:29:50.662Z,49.41
2022-07-28T02:32:29.467Z,50.07
2022-07-28T02:35:01.816Z,50.38
2022-07-28T02:37:35.432Z,51.14
2022-07-28T02:40:03.789Z,51.15
2022-07-28T02:42:34.213Z,51.48
2022-07-28T02:45:04.221Z,51.87
2022-07-28T02:47:37.153Z,52.46
2022-07-28T02:50:08.459Z,52.21
2022-07-28T02:52:36.926Z,52.52
2022-07-28T02:55:05.417Z,51.85
2022-07-28T02:57:34.762Z,51.82
2022-07-28T03:00:03.097Z,51.46
2022-07-28T03:02:33.848Z,50.65
2022-07-28T03:05:11.077Z,48.99
2022-07-28T03:07:50.360Z,50.94
2022-07-28T03:10:33.516Z,51.02
2022-07-28T03:13:05.299Z,51.94
2022-07-28T03:15:34.039Z,52.12
2022-07-28T03:18:04.161Z,51.65
2022-07-28T03:20:32.118Z,52.86
2022-07-28T03:23:00.454Z,51.95
2022-07-28T03:25:32.823Z,52.84
2022-07-28T03:28:00.910Z,52.44
2022-07-28T03:30:35.452Z,52.35
2022-07-28T03:33:03.451Z,51.79
2022-07-28T03:35:32.075Z,51.37
2022-07-28T03:38:02.690Z,51.29
2022-07-28T03:40:33.028Z,53.22
2022-07-28T03:43:08.173Z,54.21
2022-07-28T03:45:36.387Z,54.28
2022-07-28T03:48:08.819Z,54.26
2022-07-28T03:50:36.709Z,53.83
2022-07-28T03:53:10.579Z,53.97
2022-07-28T03:55:38.721Z,52.91
2022-07-28T03:58:09.588Z,52.87
2022-07-28T04:00:37.196Z,49.78
2022-07-28T04:03:04.920Z,50.53
2022-07-28T04:05:55.270Z,51.89
2022-07-28T04:08:23.158Z,50.12
2022-07-28T04:10:51.185Z,54.19
2022-07-28T04:13:19.880Z,53.64
2022-07-28T04:15:50.119Z,54.57
2022-07-28T04:18:18.555Z,53.99
2022-07-28T04:20:46.517Z,52.52
2022-07-28T04:23:18.849Z,52.11
2022-07-28T04:25:46.505Z,53.90
2022-07-28T04:28:14.499Z,52.67
2022-07-28T04:30:43.837Z,54.47
2022-07-28T04:33:12.234Z,53.67
2022-07-28T04:35:39.775Z,53.50
2022-07-28T04:38:07.734Z,53.37
2022-07-28T04:40:35.299Z,53.88
2022-07-28T04:43:04.070Z,54.09
2022-07-28T04:45:31.839Z,54.65
2022-07-28T04:47:59.642Z,54.31
2022-07-28T04:50:27.697Z,53.02
2022-07-28T04:53:01.323Z,54.20
2022-07-28T04:55:29.156Z,53.04
2022-07-28T04:57:57.245Z,51.47
2022-07-28T05:00:24.959Z,52.77
2022-07-28T05:02:52.752Z,53.54
2022-07-28T05:05:23.580Z,53.68
2022-07-28T05:07:51.289Z,53.48
2022-07-28T05:10:22.284Z,52.72
2022-07-28T05:12:54.418Z,51.79
2022-07-28T05:15:21.923Z,51.43
2022-07-28T05:17:50.712Z,52.29
2022-07-28T05:20:18.429Z,52.14
2022-07-28T05:22:48.161Z,49.17
2022-07-28T05:25:17.815Z,49.41
2022-07-28T05:27:46.389Z,50.53
2022-07-28T05:30:15.412Z,50.63
2022-07-28T05:32:47.821Z,49.33
2022-07-28T05:35:15.685Z,49.15
2022-07-28T05:37:43.919Z,47.08
2022-07-28T05:40:18.189Z,48.38
2022-07-28T05:42:47.732Z,43.20
2022-07-28T05:45:17.494Z,47.58
2022-07-28T05:47:52.795Z,48.22
2022-07-28T05:50:25.193Z,48.73
2022-07-28T05:52:55.829Z,47.14
2022-07-28T05:55:23.394Z,46.01
2022-07-28T05:57:51.129Z,45.93
2022-07-28T06:00:24.100Z,48.19
2022-07-28T06:02:53.322Z,49.55
2022-07-28T06:05:23.241Z,42.60
2022-07-28T06:07:51.743Z,46.47
2022-07-28T06:10:23.110Z,48.37
2022-07-28T06:12:55.438Z,48.38
2022-07-28T06:15:30.497Z,42.01
2022-07-28T06:17:58.012Z,47.69
2022-07-28T06:20:27.820Z,47.61
2022-07-28T06:22:56.485Z,47.22
2022-07-28T06:25:26.055Z,47.53
2022-07-28T06:27:59.146Z,47.60
2022-07-28T06:30:31.970Z,44.70
2022-07-28T06:33:05.451Z,48.75
2022-07-28T06:35:33.650Z,46.92
2022-07-28T06:38:15.199Z,41.00
2022-07-28T06:40:43.760Z,45.45
2022-07-28T06:43:13.278Z,47.35
2022-07-28T06:45:41.005Z,46.86
2022-07-28T06:48:08.955Z,45.79
2022-07-28T06:50:39.838Z,47.00
2022-07-28T06:53:07.819Z,45.54
2022-07-28T06:55:36.049Z,45.80
2022-07-28T06:58:04.975Z,45.28
2022-07-28T07:00:33.113Z,45.71
2022-07-28T07:03:01.294Z,46.37
2022-07-28T07:05:32.429Z,45.16
2022-07-28T07:08:00.734Z,45.27
2022-07-28T07:10:28.592Z,46.18
2022-07-28T07:12:56.359Z,45.27
2022-07-28T07:15:27.500Z,45.42
2022-07-28T07:17:55.328Z,46.00
2022-07-28T07:20:23.123Z,46.05
2022-07-28T07:22:53.514Z,45.80
2022-07-28T07:25:23.478Z,46.17
2022-07-28T07:27:51.144Z,45.57
2022-07-28T07:30:22.435Z,46.25
2022-07-28T07:32:50.027Z,46.15
2022-07-28T07:35:20.239Z,45.57
2022-07-28T07:37:49.251Z,46.17
2022-07-28T07:40:16.865Z,46.06
2022-07-28T07:42:44.413Z,45.37
2022-07-28T07:45:11.921Z,45.28
2022-07-28T07:47:39.643Z,45.23
2022-07-28T07:50:07.933Z,45.13
2022-07-28T07:52:35.704Z,45.28
2022-07-28T07:55:04.808Z,44.54
2022-07-28T07:57:32.911Z,43.35
2022-07-28T08:00:00.742Z,44.64
2022-07-28T08:02:29.827Z,44.65
2022-07-28T08:04:57.989Z,44.03
2022-07-28T08:07:31.714Z,43.77
2022-07-28T08:10:02.717Z,43.33
2022-07-28T08:12:30.345Z,43.29
2022-07-28T08:14:58.013Z,42.55
2022-07-28T08:17:26.410Z,42.87
2022-07-28T08:19:56.628Z,42.15
2022-07-28T08:22:24.777Z,43.42
2022-07-28T08:24:52.864Z,42.94
2022-07-28T08:27:20.820Z,42.71
2022-07-28T08:29:48.473Z,44.78
2022-07-28T08:32:16.240Z,43.36
2022-07-28T08:34:43.808Z,42.56
2022-07-28T08:37:11.402Z,42.43
2022-07-28T08:39:39.148Z,42.31
2022-07-28T08:42:18.603Z,41.67
2022-07-28T08:44:55.225Z,41.79
2022-07-28T08:47:35.672Z,41.90
2022-07-28T08:50:09.543Z,41.13
2022-07-28T08:52:38.760Z,40.59
2022-07-28T08:55:13.219Z,40.60
2022-07-28T08:57:47.440Z,40.48
2022-07-28T09:00:17.941Z,39.89
2022-07-28T09:02:46.548Z,39.68
2022-07-28T09:05:21.405Z,40.80
2022-07-28T09:07:54.397Z,40.26
2022-07-28T09:10:23.116Z,39.87
2022-07-28T09:12:51.197Z,39.47
2022-07-28T09:15:18.765Z,39.95
2022-07-28T09:17:46.328Z,39.22
2022-07-28T09:20:14.215Z,38.58
2022-07-28T09:23:05.345Z,38.56
2022-07-28T09:26:10.833Z,37.64
2022-07-28T09:28:53.387Z,39.48
2022-07-28T09:31:23.548Z,39.75
2022-07-28T09:34:04.588Z,39.78
2022-07-28T09:36:40.127Z,38.73
2022-07-28T09:39:08.228Z,38.37
2022-07-28T09:41:50.557Z,38.55
2022-07-28T09:44:23.809Z,38.15
2022-07-28T09:46:51.693Z,37.35
2022-07-28T09:49:21.956Z,36.94
2022-07-28T09:52:03.742Z,35.94
2022-07-28T09:54:31.669Z,35.81
2022-07-28T09:56:59.812Z,36.04
2022-07-28T09:59:43.035Z,35.51
2022-07-28T10:02:23.436Z,35.29
2022-07-28T10:05:00.168Z,35.59
2022-07-28T10:07:30.010Z,35.26
2022-07-28T10:10:03.547Z,34.78
2022-07-28T10:12:33.237Z,34.45
2022-07-28T10:15:45.545Z,34.94
2022-07-28T10:18:18.682Z,35.44
2022-07-28T10:21:27.611Z,35.17
2022-07-28T10:24:32.817Z,34.43
2022-07-28T10:27:37.982Z,33.49
2022-07-28T10:30:06.708Z,34.45
2022-07-28T10:32:43.116Z,33.00
2022-07-28T10:35:55.115Z,32.76
2022-07-28T10:39:01.813Z,32.58
2022-07-28T10:41:34.498Z,32.70
2022-07-28T10:44:03.837Z,32.54
2022-07-28T10:47:09.693Z,31.90
2022-07-28T10:49:50.253Z,32.25
2022-07-28T10:52:59.182Z,32.53
2022-07-28T10:55:38.728Z,32.26
2022-07-28T10:58:24.746Z,31.04
2022-07-28T11:01:47.568Z,31.54
2022-07-28T11:05:12.214Z,31.01
2022-07-28T11:08:39.667Z,30.67
2022-07-28T11:11:09.444Z,32.19
2022-07-28T11:14:39.802Z,31.88
2022-07-28T11:17:10.333Z,31.95
2022-07-28T11:22:51.883Z,30.32
2022-07-28T11:25:22.442Z,31.10
2022-07-28T11:27:50.472Z,30.25
2022-07-28T11:30:33.113Z,29.77
2022-07-28T11:33:01.775Z,29.73
2022-07-28T11:36:30.353Z,29.42
2022-07-28T11:39:57.854Z,29.10
2022-07-28T11:43:21.993Z,29.28
2022-07-28T11:46:45.280Z,28.92
2022-07-28T11:50:08.842Z,28.09
2022-07-28T11:53:32.336Z,27.62
2022-07-28T11:56:55.890Z,28.98
2022-07-28T12:00:19.368Z,27.19
2022-07-28T12:03:50.367Z,27.36
2022-07-28T12:07:22.788Z,27.22
2022-07-28T12:10:55.435Z,26.05
2022-07-28T12:14:20.025Z,26.65
2022-07-28T12:17:43.943Z,26.82
2022-07-28T12:21:07.703Z,26.31
2022-07-28T12:24:45.701Z,25.95
2022-07-28T12:28:10.244Z,27.45
2022-07-28T12:31:34.985Z,27.01
2022-07-28T12:34:58.744Z,26.54
2022-07-28T12:38:22.574Z,26.06
2022-07-28T12:40:49.781Z,24.79
2022-07-28T12:43:30.917Z,23.84
2022-07-28T12:46:01.215Z,24.03
2022-07-28T12:48:28.529Z,24.38
2022-07-28T12:50:55.590Z,24.69
2022-07-28T12:53:23.228Z,23.89
2022-07-28T12:56:01.724Z,23.33
2022-07-28T12:58:28.924Z,22.97
2022-07-28T13:01:01.406Z,22.69
2022-07-28T13:03:29.817Z,22.04
2022-07-28T13:06:22.067Z,21.12
2022-07-28T13:08:53.082Z,21.77
2022-07-28T13:11:47.948Z,20.92
2022-07-28T13:14:15.699Z,19.55
2022-07-28T13:16:43.858Z,20.42
2022-07-28T13:19:21.771Z,20.88
2022-07-28T13:22:01.759Z,22.19
2022-07-28T13:24:31.965Z,21.12
2022-07-28T13:27:03.546Z,19.89
2022-07-28T13:29:35.364Z,19.25
2022-07-28T13:32:02.589Z,18.14
2022-07-28T13:34:29.750Z,18.51
2022-07-28T13:36:59.627Z,20.38
2022-07-28T13:39:27.531Z,18.62
2022-07-28T13:42:05.472Z,17.78
2022-07-28T13:44:35.233Z,17.32
2022-07-28T13:47:05.641Z,18.33
2022-07-28T13:49:36.126Z,18.86
2022-07-28T13:52:06.851Z,19.36
2022-07-28T13:54:41.760Z,17.71
2022-07-28T13:57:13.413Z,17.19
2022-07-28T13:59:41.722Z,16.58
2022-07-28T14:02:15.106Z,17.67
2022-07-28T14:04:50.020Z,18.53
2022-07-28T14:07:20.697Z,19.37
2022-07-28T14:09:50.702Z,19.17
2022-07-28T14:12:18.401Z,18.77
2022-07-28T14:14:47.909Z,20.35
2022-07-28T14:17:39.883Z,19.15
2022-07-28T14:20:04.775Z,19.04
2022-07-28T14:22:32.202Z,17.42
2022-07-28T14:24:59.615Z,16.64
2022-07-28T14:27:29.230Z,15.78
2022-07-28T14:29:56.820Z,15.78
2022-07-28T14:32:30.517Z,17.25
2022-07-28T14:35:02.323Z,17.95
2022-07-28T14:37:36.269Z,18.64
2022-07-28T14:40:09.146Z,17.79
2022-07-28T14:42:39.450Z,17.46
2022-07-28T14:45:12.578Z,16.89
2022-07-28T14:47:44.227Z,15.37
2022-07-28T14:50:13.456Z,16.04
2022-07-28T14:52:40.728Z,14.84
2022-07-28T14:55:14.694Z,14.20
2022-07-28T14:57:50.325Z,14.35
2022-07-28T15:00:25.020Z,14.14
2022-07-28T15:02:53.133Z,14.30
2022-07-28T15:05:23.162Z,15.07
2022-07-28T15:07:52.174Z,15.11
2022-07-28T15:10:20.801Z,15.77
2022-07-28T15:12:50.112Z,15.98
2022-07-28T15:15:18.304Z,14.93
2022-07-28T15:17:45.427Z,15.09
2022-07-28T15:20:13.000Z,14.56
2022-07-28T15:22:40.537Z,15.33
2022-07-28T15:25:09.985Z,17.08
2022-07-28T15:27:41.631Z,16.00
2022-07-28T15:30:14.012Z,15.10
2022-07-28T15:32:56.373Z,15.30
2022-07-28T15:35:27.493Z,15.35
2022-07-28T15:37:56.903Z,18.12
2022-07-28T15:40:25.135Z,19.57
2022-07-28T15:42:52.937Z,18.91
2022-07-28T15:45:20.147Z,16.59
2022-07-28T15:47:47.445Z,17.44
2022-07-28T15:50:14.550Z,17.39
2022-07-28T15:52:41.985Z,16.82
2022-07-28T15:55:10.306Z,17.20
2022-07-28T15:57:38.676Z,16.84
2022-07-28T16:00:09.273Z,18.56
2022-07-28T16:02:45.113Z,17.97
2022-07-28T16:05:12.206Z,18.33
2022-07-28T16:07:43.199Z,18.81
2022-07-28T16:10:12.569Z,18.94
2022-07-28T16:12:42.309Z,19.60
2022-07-28T16:15:09.956Z,20.75
2022-07-28T16:17:37.262Z,20.59
2022-07-28T16:20:05.917Z,20.15
2022-07-28T16:22:40.262Z,21.15
2022-07-28T16:25:10.627Z,21.21
2022-07-28T16:27:49.061Z,21.60
2022-07-28T16:30:18.857Z,20.99
2022-07-28T16:32:47.651Z,20.94
2022-07-28T16:35:15.333Z,21.08
2022-07-28T16:37:42.553Z,20.98
2022-07-28T16:40:13.348Z,20.81
2022-07-28T16:42:40.464Z,23.18
2022-07-28T16:45:08.283Z,22.89
2022-07-28T16:47:37.797Z,22.78
2022-07-28T16:50:05.302Z,22.77
2022-07-28T16:52:35.517Z,23.20
2022-07-28T16:55:03.052Z,23.44
2022-07-28T16:57:30.275Z,24.08
2022-07-28T16:59:57.361Z,23.94
2022-07-28T17:02:24.443Z,23.76
2022-07-28T17:04:51.538Z,23.38
2022-07-28T17:07:22.164Z,23.32
2022-07-28T17:09:52.390Z,23.83
2022-07-28T17:12:19.487Z,23.95
2022-07-28T17:14:46.532Z,24.73
2022-07-28T17:17:13.652Z,24.15
2022-07-28T17:19:51.014Z,25.87
2022-07-28T17:22:23.739Z,25.70
2022-07-28T17:24:51.249Z,25.96
2022-07-28T17:27:38.439Z,25.80
2022-07-28T17:30:07.424Z,25.91
2022-07-28T17:32:34.540Z,25.92
2022-07-28T17:35:01.633Z,26.35
2022-07-28T17:37:29.208Z,25.88
2022-07-28T17:39:56.590Z,26.21
2022-07-28T17:42:23.754Z,26.15
2022-07-28T17:44:53.565Z,26.46
2022-07-28T17:47:23.899Z,27.13
2022-07-28T17:50:04.373Z,27.17
2022-07-28T17:52:33.622Z,27.41
2022-07-28T17:55:19.326Z,27.40
2022-07-28T17:57:51.059Z,27.60
2022-07-28T18:00:20.526Z,27.79
2022-07-28T18:02:53.172Z,28.35
2022-07-28T18:05:20.480Z,28.46
2022-07-28T18:07:50.370Z,28.23
2022-07-28T18:10:24.655Z,28.80
2022-07-28T18:12:52.650Z,28.26
2022-07-28T18:15:19.974Z,28.69
2022-07-28T18:17:54.723Z,29.32
2022-07-28T18:20:24.147Z,28.96
2022-07-28T18:22:52.067Z,28.47
2022-07-28T18:25:19.640Z,28.34
2022-07-28T18:27:48.101Z,28.88
2022-07-28T18:30:18.489Z,28.90
2022-07-28T18:33:03.359Z,29.37
2022-07-28T18:35:31.617Z,28.92
2022-07-28T18:38:02.403Z,29.29
2022-07-28T18:40:29.559Z,30.37
2022-07-28T18:42:57.574Z,30.32
2022-07-28T18:45:24.889Z,30.55
2022-07-28T18:47:53.351Z,30.39
2022-07-28T18:50:28.009Z,30.56
2022-07-28T18:52:59.221Z,30.73
2022-07-28T18:55:26.309Z,30.66
2022-07-28T18:57:55.585Z,30.63
2022-07-28T19:00:22.644Z,30.55
2022-07-28T19:02:49.876Z,30.36
2022-07-28T19:05:17.057Z,30.26
2022-07-28T19:07:44.109Z,31.08
2022-07-28T19:10:11.475Z,31.20
2022-07-28T19:12:38.804Z,30.81
2022-07-28T19:15:07.230Z,31.23
2022-07-28T19:17:34.351Z,31.20
2022-07-28T19:20:01.894Z,31.14
2022-07-28T19:22:29.416Z,31.62
2022-07-28T19:24:57.019Z,31.67
2022-07-28T19:27:26.194Z,31.80
2022-07-28T19:29:58.316Z,32.39
2022-07-28T19:32:25.454Z,32.02
2022-07-28T19:34:52.838Z,31.92
2022-07-28T19:37:20.470Z,32.06
2022-07-28T19:39:47.599Z,32.31
2022-07-28T19:42:14.693Z,31.70
2022-07-28T19:44:42.613Z,32.74
2022-07-28T19:47:09.690Z,31.50
2022-07-28T19:49:39.623Z,32.97
2022-07-28T19:52:07.302Z,38.07
2022-07-28T19:54:34.355Z,66.03
2022-07-28T19:57:01.446Z,100.00
2022-07-28T19:59:37.412Z,100.00
2022-07-28T20:02:04.637Z,100.00
2022-07-28T20:04:31.724Z,100.00
2022-07-28T20:06:58.771Z,100.00
2022-07-28T20:09:29.047Z,100.00
2022-07-28T20:11:56.639Z,100.00
2022-07-28T20:14:23.693Z,100.00
2022-07-28T20:16:50.874Z,100.00
2022-07-28T20:19:20.543Z,100.00
2022-07-28T20:21:47.587Z,100.00
2022-07-28T20:24:15.630Z,100.00
2022-07-28T20:26:42.962Z,100.00
2022-07-28T20:30:06.446Z,100.00
2022-07-28T20:32:33.795Z,100.00
2022-07-28T20:35:39.514Z,100.00
2022-07-28T20:38:45.222Z,100.00
2022-07-28T20:42:09.707Z,100.00
2022-07-28T20:45:33.399Z,100.00
2022-07-28T20:48:01.081Z,100.00
2022-07-28T20:51:24.555Z,100.00
2022-07-28T20:53:51.657Z,100.00
2022-07-28T20:56:22.792Z,100.00
2022-07-28T20:59:48.812Z,100.00
2022-07-28T21:02:16.524Z,100.00
2022-07-28T21:05:35.065Z,100.00
2022-07-28T21:08:06.538Z,100.00
2022-07-28T21:11:34.961Z,100.00
2022-07-28T21:14:59.292Z,100.00
2022-07-28T21:17:26.901Z,100.00
2022-07-28T21:20:50.808Z,100.00
2022-07-28T21:23:19.535Z,100.00
2022-07-28T21:26:43.522Z,100.00
2022-07-28T21:29:12.414Z,100.00
2022-07-28T21:32:03.924Z,100.00
2022-07-28T21:34:35.628Z,100.00
2022-07-28T21:37:07.801Z,100.00
2022-07-28T21:39:37.669Z,100.00
2022-07-28T21:42:10.196Z,100.00
2022-07-28T21:44:38.432Z,100.00
2022-07-28T21:47:19.175Z,100.00
2022-07-28T21:49:46.242Z,100.00
2022-07-28T21:52:13.352Z,100.00
2022-07-28T21:54:40.653Z,100.00
2022-07-28T21:57:22.370Z,100.00
2022-07-28T21:59:53.763Z,100.00
2022-07-28T22:02:20.867Z,100.00
2022-07-28T22:04:51.470Z,100.00
2022-07-28T22:07:18.634Z,100.00
2022-07-28T22:09:45.681Z,100.00
2022-07-28T22:12:12.788Z,100.00
2022-07-28T22:14:39.889Z,100.00
2022-07-28T22:17:09.980Z,100.00
2022-07-28T22:19:38.439Z,100.00
2022-07-28T22:22:06.090Z,100.00
2022-07-28T22:24:33.661Z,100.00
2022-07-28T22:27:01.163Z,100.00
2022-07-28T22:29:31.369Z,100.00
2022-07-28T22:31:59.556Z,100.00
2022-07-28T22:34:27.842Z,100.00
2022-07-28T22:36:57.636Z,100.00
2022-07-28T22:39:24.766Z,100.00
2022-07-28T22:41:51.837Z,100.00
2022-07-28T22:44:19.372Z,100.00
2022-07-28T22:46:47.154Z,100.00
2022-07-28T22:49:19.428Z,100.00
2022-07-28T22:51:48.287Z,100.00
2022-07-28T22:54:18.360Z,100.00
2022-07-28T22:56:46.471Z,100.00
2022-07-28T22:59:14.516Z,100.00
2022-07-28T23:01:45.195Z,100.00
2022-07-28T23:04:14.563Z,100.00
2022-07-28T23:06:50.734Z,100.00
2022-07-28T23:09:17.897Z,100.00
2022-07-28T23:11:55.453Z,100.00
2022-07-28T23:14:23.456Z,100.00
2022-07-28T23:16:50.781Z,100.00
2022-07-28T23:19:18.217Z,100.00
2022-07-28T23:21:50.377Z,100.00
2022-07-28T23:24:18.758Z,100.00
2022-07-28T23:26:49.679Z,100.00
2022-07-28T23:29:19.470Z,100.00
2022-07-28T23:31:49.923Z,100.00
2022-07-28T23:34:17.330Z,100.00
2022-07-28T23:36:44.566Z,100.00
2022-07-28T23:39:11.619Z,100.00
2022-07-28T23:41:41.363Z,100.00
2022-07-28T23:44:11.133Z,100.00
2022-07-28T23:46:38.329Z,100.00
2022-07-28T23:49:05.448Z,100.00
2022-07-28T23:51:48.214Z,100.00
2022-07-28T23:54:17.008Z,100.00
2022-07-28T23:56:45.427Z,100.00
2022-07-28T23:59:14.468Z,100.00
